Time;durP1;ratioP1;P1;durP2;ratioP2;P2;SDS_P1;SDS_P2;PMS_P1;PMS_P2;Temp;Humidity;BMP_temperature;BMP_pressure;BME280_temperature;BME280_humidity;BME280_pressure;Samples;Min_cycle;Max_cycle;Signal;HPM_P1;HPM_P2
2022/01/06 00:01:55;;;;;;;11.93;3.90;;;5.40;99.90;;;;;;5076484;28;20413;-78
2022/01/06 00:04:22;;;;;;;12.53;3.20;;;5.10;99.90;;;;;;5076809;28;20281;-79
2022/01/06 00:06:57;;;;;;;11.43;3.07;;;5.20;99.90;;;;;;5077482;28;20186;-79
2022/01/06 00:09:24;;;;;;;9.73;3.20;;;5.20;99.90;;;;;;5077618;28;20205;-79
2022/01/06 00:11:52;;;;;;;10.83;3.20;;;5.30;99.90;;;;;;5076825;28;20265;-78
2022/01/06 00:14:34;;;;;;;13.50;3.50;;;5.30;99.90;;;;;;5077420;28;20209;-79
2022/01/06 00:17:17;;;;;;;12.50;3.43;;;5.30;99.90;;;;;;5077822;28;20313;-79
2022/01/06 00:25:15;;;;;;;14.67;5.17;;;5.30;99.90;;;;;;5100775;28;20247;-79
2022/01/06 00:27:48;;;;;;;16.60;4.30;;;5.20;99.90;;;;;;5101586;28;20216;-79
2022/01/06 00:30:18;;;;;;;10.07;3.70;;;5.10;99.90;;;;;;5101925;28;20193;-79
2022/01/06 00:32:45;;;;;;;10.50;3.33;;;5.10;99.90;;;;;;5101389;28;20663;-79
2022/01/06 00:35:25;;;;;;;13.80;4.00;;;5.10;99.90;;;;;;5101589;28;20186;-79
2022/01/06 00:37:58;;;;;;;14.23;4.00;;;5.10;99.90;;;;;;5102512;28;20193;-79
2022/01/06 00:40:26;;;;;;;17.83;4.28;;;5.10;99.90;;;;;;5100127;28;20439;-78
2022/01/06 00:42:52;;;;;;;22.67;4.30;;;5.10;99.90;;;;;;5102710;28;20193;-79
2022/01/06 00:45:25;;;;;;;16.67;3.93;;;5.10;99.90;;;;;;5103229;28;20200;-78
2022/01/06 00:47:54;;;;;;;16.03;3.83;;;5.00;99.90;;;;;;5101918;28;20193;-79
2022/01/06 00:50:20;;;;;;;13.20;3.73;;;4.90;99.90;;;;;;5099178;28;20202;-79
2022/01/06 00:52:48;;;;;;;20.27;3.80;;;5.00;99.90;;;;;;5095387;28;20563;-79
2022/01/06 00:55:15;;;;;;;14.23;3.60;;;5.00;99.90;;;;;;5095690;28;20601;-78
2022/01/06 00:57:43;;;;;;;19.07;3.57;;;5.10;99.90;;;;;;5095512;28;20201;-79
2022/01/06 01:00:13;;;;;;;18.17;3.47;;;5.00;99.90;;;;;;5095583;28;20203;-79
2022/01/06 01:02:45;;;;;;;17.33;3.40;;;4.90;99.90;;;;;;5095853;28;20193;-78
2022/01/06 01:05:12;;;;;;;19.03;3.60;;;4.80;99.90;;;;;;5095373;28;20209;-79
2022/01/06 01:07:39;;;;;;;17.63;3.90;;;4.70;99.90;;;;;;5095777;28;20654;-79
2022/01/06 01:10:07;;;;;;;18.63;3.73;;;4.70;99.90;;;;;;5095647;28;20236;-79
2022/01/06 01:12:36;;;;;;;12.20;3.17;;;4.70;99.90;;;;;;5095168;28;20229;-78
2022/01/06 01:15:07;;;;;;;19.63;3.43;;;4.70;99.90;;;;;;5095464;28;20648;-79
2022/01/06 01:17:35;;;;;;;21.80;3.53;;;4.70;99.90;;;;;;5095396;28;20258;-79
2022/01/06 01:20:05;;;;;;;18.17;3.90;;;4.60;99.90;;;;;;5095274;28;20197;-79
2022/01/06 01:22:32;;;;;;;17.47;3.90;;;4.60;99.90;;;;;;5095116;28;20224;-78
2022/01/06 01:24:58;;;;;;;20.83;3.50;;;4.60;99.90;;;;;;5094988;28;20208;-79
2022/01/06 01:27:34;;;;;;;17.17;3.37;;;4.50;99.90;;;;;;5095704;28;20208;-78
2022/01/06 01:30:08;;;;;;;15.67;3.60;;;4.50;99.90;;;;;;5095441;28;20578;-78
2022/01/06 01:32:37;;;;;;;15.87;3.73;;;4.50;99.90;;;;;;5094942;28;20496;-79
2022/01/06 01:35:08;;;;;;;14.37;3.27;;;4.50;99.90;;;;;;5095142;28;20976;-79
2022/01/06 01:37:37;;;;;;;22.03;5.07;;;4.40;99.90;;;;;;5094262;28;20507;-79
2022/01/06 01:40:11;;;;;;;22.97;4.10;;;4.30;99.90;;;;;;5095126;28;20430;-79
2022/01/06 01:42:40;;;;;;;26.93;4.07;;;4.30;99.90;;;;;;5077226;28;20480;-79
2022/01/06 01:45:08;;;;;;;24.80;3.63;;;4.20;99.90;;;;;;5095702;28;20201;-79
2022/01/06 01:47:39;;;;;;;20.80;3.60;;;4.20;99.90;;;;;;5094903;28;20520;-79
2022/01/06 01:50:13;;;;;;;19.00;4.10;;;4.30;99.90;;;;;;5094881;28;20920;-79
2022/01/06 01:52:46;;;;;;;18.83;3.37;;;4.30;99.90;;;;;;5095561;28;20488;-79
2022/01/06 01:55:15;;;;;;;17.97;4.20;;;4.30;99.90;;;;;;5095353;28;20465;-79
2022/01/06 01:57:48;;;;;;;20.63;4.03;;;4.30;99.90;;;;;;5095187;28;20446;-79
2022/01/06 02:00:17;;;;;;;19.40;3.87;;;4.20;99.90;;;;;;5076952;28;20457;-78
2022/01/06 02:02:47;;;;;;;24.53;4.10;;;4.20;99.90;;;;;;5094087;28;20433;-79
2022/01/06 02:05:24;;;;;;;22.00;4.13;;;4.30;99.90;;;;;;5094781;28;20826;-79
2022/01/06 02:07:51;;;;;;;26.83;4.50;;;4.30;99.90;;;;;;5095365;28;20457;-79
2022/01/06 02:10:21;;;;;;;16.77;2.90;;;4.20;99.90;;;;;;5095049;28;20958;-79
2022/01/06 02:12:53;;;;;;;24.07;3.27;;;4.20;99.90;;;;;;5095397;28;20463;-78
2022/01/06 02:15:20;;;;;;;22.97;4.30;;;4.20;99.90;;;;;;5094985;28;20462;-79
2022/01/06 02:17:47;;;;;;;22.80;4.17;;;4.30;99.90;;;;;;5075401;28;20949;-78
2022/01/06 02:20:20;;;;;;;25.00;3.53;;;4.30;99.90;;;;;;5075117;28;20441;-79
2022/01/06 02:22:54;;;;;;;26.03;3.93;;;4.30;99.90;;;;;;5074862;28;20457;-79
2022/01/06 02:25:22;;;;;;;16.20;3.37;;;4.30;99.90;;;;;;5084079;28;20479;-79
2022/01/06 02:27:52;;;;;;;18.77;3.90;;;4.30;99.90;;;;;;5094885;28;20972;-78
2022/01/06 02:30:26;;;;;;;20.37;4.23;;;4.30;99.90;;;;;;5094737;28;20446;-79
2022/01/06 02:32:54;;;;;;;23.92;5.50;;;4.20;99.90;;;;;;5093709;28;20494;-79
2022/01/06 02:35:24;;;;;;;18.53;3.70;;;4.30;99.90;;;;;;5094585;28;20254;-79
2022/01/06 02:37:52;;;;;;;26.63;3.87;;;4.30;99.90;;;;;;5095174;28;20307;-79
2022/01/06 02:40:20;;;;;;;23.87;4.43;;;4.30;99.90;;;;;;5094749;28;20448;-78
2022/01/06 02:42:50;;;;;;;16.10;3.50;;;4.30;99.90;;;;;;5095109;28;20445;-79
2022/01/06 02:45:23;;;;;;;20.80;4.10;;;4.40;99.90;;;;;;5096271;28;20472;-79
2022/01/06 02:47:50;;;;;;;18.27;3.63;;;4.30;99.90;;;;;;5103240;28;20436;-80
2022/01/06 02:50:25;;;;;;;23.73;4.03;;;4.40;99.90;;;;;;5106535;28;20432;-79
2022/01/06 02:52:52;;;;;;;29.27;4.80;;;4.40;99.90;;;;;;5107211;28;20233;-79
2022/01/06 02:55:20;;;;;;;21.67;4.20;;;4.40;99.90;;;;;;5106098;28;20452;-80
2022/01/06 02:57:47;;;;;;;19.93;4.23;;;4.40;99.90;;;;;;5103727;28;20437;-78
2022/01/06 03:00:17;;;;;;;23.57;4.57;;;4.50;99.90;;;;;;5102268;28;20908;-79
2022/01/06 03:02:46;;;;;;;29.93;4.47;;;4.50;99.90;;;;;;5101767;28;20560;-79
2022/01/06 03:05:13;;;;;;;21.40;4.33;;;4.50;99.90;;;;;;5101488;28;20441;-78
2022/01/06 03:07:42;;;;;;;20.23;4.60;;;4.60;99.90;;;;;;5100584;28;20457;-79
2022/01/06 03:10:13;;;;;;;13.67;3.63;;;4.60;99.90;;;;;;5101744;28;20426;-78
2022/01/06 03:12:41;;;;;;;21.90;4.47;;;4.60;99.90;;;;;;5101154;28;20241;-79
2022/01/06 03:15:09;;;;;;;17.03;4.07;;;4.60;99.90;;;;;;5100064;28;20441;-79
2022/01/06 03:17:37;;;;;;;20.97;4.60;;;4.60;99.90;;;;;;5098997;28;20943;-79
2022/01/06 03:20:06;;;;;;;24.37;4.63;;;4.60;99.90;;;;;;5097819;28;20436;-79
2022/01/06 03:22:35;;;;;;;35.53;5.30;;;4.50;99.90;;;;;;5097806;28;20465;-79
2022/01/06 03:25:04;;;;;;;16.17;4.27;;;4.60;99.90;;;;;;5099117;28;20197;-78
2022/01/06 03:27:31;;;;;;;23.83;5.27;;;4.50;99.90;;;;;;5096345;28;20454;-78
2022/01/06 03:29:59;;;;;;;19.17;5.00;;;4.50;99.90;;;;;;5096737;28;20667;-78
2022/01/06 03:32:26;;;;;;;23.07;4.73;;;4.60;99.90;;;;;;5097252;28;20221;-78
2022/01/06 03:34:54;;;;;;;24.43;4.57;;;4.70;99.90;;;;;;5097086;28;20197;-78
2022/01/06 03:37:22;;;;;;;26.10;5.20;;;4.70;99.90;;;;;;5096604;28;20952;-78
2022/01/06 03:39:49;;;;;;;22.60;4.23;;;4.60;99.90;;;;;;5096774;28;20445;-79
2022/01/06 03:42:17;;;;;;;21.33;4.80;;;4.60;99.90;;;;;;5096703;28;20196;-80
2022/01/06 03:44:44;;;;;;;19.27;4.50;;;4.60;99.90;;;;;;5096153;28;20189;-78
2022/01/06 03:47:12;;;;;;;26.03;3.73;;;4.60;99.90;;;;;;5096570;28;20445;-78
2022/01/06 03:49:39;;;;;;;20.53;3.70;;;4.60;99.90;;;;;;5096661;28;20240;-78
2022/01/06 03:52:06;;;;;;;16.60;3.87;;;4.60;99.90;;;;;;5096748;28;20595;-78
2022/01/06 03:54:33;;;;;;;20.40;3.83;;;4.60;99.90;;;;;;5096547;28;20273;-77
2022/01/06 03:57:01;;;;;;;19.23;3.53;;;4.70;99.90;;;;;;5096541;28;20193;-79
2022/01/06 03:59:29;;;;;;;24.17;6.80;;;4.70;99.90;;;;;;5096190;28;20189;-78
2022/01/06 04:01:56;;;;;;;17.47;4.00;;;4.70;99.90;;;;;;5096131;28;20201;-78
2022/01/06 04:04:24;;;;;;;17.40;3.70;;;4.70;99.90;;;;;;5096498;28;20185;-78
2022/01/06 04:06:51;;;;;;;21.47;3.80;;;4.70;99.90;;;;;;5096322;28;20189;-78
2022/01/06 04:09:17;;;;;;;19.33;4.20;;;4.60;99.90;;;;;;5096386;28;20277;-79
2022/01/06 04:11:44;;;;;;;17.20;4.77;;;4.60;99.90;;;;;;5095684;28;20248;-78
2022/01/06 04:14:11;;;;;;;24.43;4.60;;;4.50;99.90;;;;;;5096188;28;20205;-78
2022/01/06 04:16:40;;;;;;;14.97;3.57;;;4.40;99.90;;;;;;5096310;28;20258;-78
2022/01/06 04:19:09;;;;;;;17.77;4.53;;;4.40;99.90;;;;;;5096201;28;20208;-78
2022/01/06 04:21:36;;;;;;;21.73;4.07;;;4.30;99.90;;;;;;5095901;28;20232;-78
2022/01/06 04:24:03;;;;;;;27.13;4.47;;;4.20;99.90;;;;;;5095753;28;20189;-78
2022/01/06 04:26:31;;;;;;;25.90;5.10;;;4.20;99.90;;;;;;5095477;28;20461;-77
2022/01/06 04:28:59;;;;;;;21.50;4.43;;;4.20;99.90;;;;;;5095017;28;20562;-78
2022/01/06 04:31:25;;;;;;;16.23;3.87;;;4.20;99.90;;;;;;5095670;28;20808;-78
2022/01/06 04:33:54;;;;;;;19.23;4.33;;;4.20;99.90;;;;;;5095823;28;20205;-78
2022/01/06 04:36:23;;;;;;;19.70;4.23;;;4.20;99.90;;;;;;5095679;28;20209;-78
2022/01/06 04:38:50;;;;;;;24.13;4.20;;;4.20;99.90;;;;;;5095172;28;20664;-78
2022/01/06 04:41:17;;;;;;;26.85;5.18;;;4.20;99.90;;;;;;5095130;28;20438;-78
2022/01/06 04:43:46;;;;;;;18.67;4.10;;;4.20;99.90;;;;;;5095345;28;20213;-78
2022/01/06 04:46:12;;;;;;;22.03;4.43;;;4.10;99.90;;;;;;5095634;28;20209;-78
2022/01/06 04:48:40;;;;;;;16.77;3.67;;;4.20;99.90;;;;;;5095591;28;20430;-78
2022/01/06 04:51:08;;;;;;;15.00;3.33;;;4.20;99.90;;;;;;5095608;28;20205;-78
2022/01/06 04:53:35;;;;;;;19.97;3.70;;;4.20;99.90;;;;;;5095669;28;20225;-78
2022/01/06 04:56:02;;;;;;;16.17;3.77;;;4.20;99.90;;;;;;5094988;28;20227;-78
2022/01/06 04:58:32;;;;;;;23.37;3.90;;;4.20;99.90;;;;;;5095211;28;20207;-78
2022/01/06 05:01:00;;;;;;;26.63;4.47;;;4.30;99.90;;;;;;5095674;28;20544;-78
2022/01/06 05:03:28;;;;;;;15.13;3.97;;;4.40;99.90;;;;;;5095428;28;20659;-78
2022/01/06 05:05:55;;;;;;;17.30;4.77;;;4.50;99.90;;;;;;5094990;28;20208;-78
2022/01/06 05:08:23;;;;;;;31.03;4.00;;;4.60;99.90;;;;;;5095352;28;20204;-78
2022/01/06 05:10:52;;;;;;;17.90;3.63;;;4.40;99.90;;;;;;5095282;28;20211;-79
2022/01/06 05:13:18;;;;;;;20.43;4.20;;;4.40;99.90;;;;;;5094318;28;20623;-79
2022/01/06 05:15:45;;;;;;;18.53;4.30;;;4.40;99.90;;;;;;5095217;28;20193;-78
2022/01/06 05:18:13;;;;;;;19.43;4.13;;;4.50;99.90;;;;;;5095043;28;20210;-78
2022/01/06 05:20:42;;;;;;;21.30;5.10;;;4.50;99.90;;;;;;5095060;28;20217;-78
2022/01/06 05:23:13;;;;;;;16.47;3.80;;;4.50;99.90;;;;;;5094642;28;20535;-78
2022/01/06 05:25:41;;;;;;;19.33;4.03;;;4.50;99.90;;;;;;5094550;28;20651;-78
2022/01/06 05:28:09;;;;;;;19.17;4.03;;;4.50;99.90;;;;;;5094461;28;20201;-78
2022/01/06 05:30:37;;;;;;;16.10;4.40;;;4.50;99.90;;;;;;5094423;28;20212;-78
2022/01/06 05:33:04;;;;;;;17.50;4.73;;;4.50;99.90;;;;;;5094474;28;20672;-78
2022/01/06 05:35:31;;;;;;;18.20;4.70;;;4.50;99.90;;;;;;5095259;28;20201;-78
2022/01/06 05:37:58;;;;;;;23.83;4.60;;;4.50;99.90;;;;;;5094816;28;20204;-78
2022/01/06 05:40:25;;;;;;;19.23;5.10;;;4.50;99.90;;;;;;5094752;28;20528;-79
2022/01/06 05:42:57;;;;;;;18.50;4.07;;;4.50;99.90;;;;;;5094685;28;20576;-79
2022/01/06 05:45:24;;;;;;;14.97;4.20;;;4.70;99.90;;;;;;5094194;28;20209;-78
2022/01/06 05:47:51;;;;;;;20.70;4.50;;;4.60;99.90;;;;;;5094115;28;20543;-78
2022/01/06 05:50:18;;;;;;;16.87;4.00;;;4.60;99.90;;;;;;5094229;28;20204;-78
2022/01/06 05:52:45;;;;;;;16.20;3.63;;;4.40;99.90;;;;;;5094484;28;20218;-78
2022/01/06 05:55:12;;;;;;;18.50;4.10;;;4.40;99.90;;;;;;5093941;28;20449;-78
2022/01/06 05:57:39;;;;;;;13.90;3.60;;;4.40;99.90;;;;;;5094141;28;20208;-78
2022/01/06 06:00:10;;;;;;;18.67;4.70;;;4.40;99.90;;;;;;5094159;28;20438;-77
2022/01/06 06:02:37;;;;;;;22.43;4.40;;;4.40;99.90;;;;;;5078390;28;20228;-78
2022/01/06 06:05:04;;;;;;;18.63;4.40;;;4.50;99.90;;;;;;5072926;28;20202;-78
2022/01/06 06:07:31;;;;;;;17.27;4.07;;;4.50;99.90;;;;;;5072350;28;20247;-77
2022/01/06 06:09:58;;;;;;;15.80;4.23;;;4.50;99.90;;;;;;5073241;28;20936;-77
2022/01/06 06:12:25;;;;;;;23.20;5.35;;;4.50;99.90;;;;;;5072311;28;20780;-78
2022/01/06 06:14:51;;;;;;;17.97;4.07;;;4.50;99.90;;;;;;5073565;28;20190;-78
2022/01/06 06:17:21;;;;;;;16.20;3.87;;;4.50;99.90;;;;;;5073469;28;20206;-78
2022/01/06 06:19:48;;;;;;;12.43;4.00;;;4.60;99.90;;;;;;5073434;28;20545;-78
2022/01/06 06:22:15;;;;;;;8.27;2.80;;;4.60;99.90;;;;;;5072997;28;20217;-78
2022/01/06 06:24:44;;;;;;;13.00;3.47;;;4.70;99.90;;;;;;5076925;28;20921;-78
2022/01/06 06:27:11;;;;;;;15.97;3.67;;;4.60;99.90;;;;;;5077479;28;20921;-78
2022/01/06 06:29:39;;;;;;;20.20;4.33;;;4.60;99.90;;;;;;5076836;28;20428;-77
2022/01/06 06:32:06;;;;;;;16.37;3.30;;;4.60;99.90;;;;;;5089016;28;20449;-78
2022/01/06 06:34:36;;;;;;;14.83;3.10;;;4.60;99.90;;;;;;5097616;28;20566;-78
2022/01/06 06:37:03;;;;;;;14.87;3.57;;;4.60;99.90;;;;;;5097218;28;20442;-78
2022/01/06 06:39:29;;;;;;;15.80;3.20;;;4.50;99.90;;;;;;5097724;28;20428;-78
2022/01/06 06:41:56;;;;;;;13.70;3.13;;;4.60;99.90;;;;;;5097373;28;20449;-78
2022/01/06 06:44:23;;;;;;;12.53;3.43;;;4.60;99.90;;;;;;5097361;28;20208;-78
2022/01/06 06:46:51;;;;;;;26.10;9.43;;;4.60;99.90;;;;;;5096818;28;20432;-77
2022/01/06 06:49:18;;;;;;;15.97;5.23;;;4.50;99.90;;;;;;5097739;28;20224;-78
2022/01/06 06:51:47;;;;;;;14.37;5.23;;;4.60;99.90;;;;;;5096966;28;20444;-78
2022/01/06 06:54:14;;;;;;;15.73;4.20;;;4.60;99.90;;;;;;5097241;28;20699;-78
2022/01/06 06:56:41;;;;;;;18.00;4.80;;;4.70;99.90;;;;;;5097196;28;20235;-78
2022/01/06 06:59:09;;;;;;;17.97;5.07;;;4.60;99.90;;;;;;5097488;28;20209;-78
2022/01/06 07:01:36;;;;;;;16.40;4.70;;;4.50;99.90;;;;;;5096816;28;20452;-77
2022/01/06 07:04:03;;;;;;;18.00;4.73;;;4.50;99.90;;;;;;5097413;28;20468;-78
2022/01/06 07:06:30;;;;;;;17.37;4.77;;;4.40;99.90;;;;;;5097020;28;20429;-78
2022/01/06 07:08:58;;;;;;;24.00;4.83;;;4.30;99.90;;;;;;5096881;28;20830;-78
2022/01/06 07:11:25;;;;;;;18.07;4.73;;;4.20;99.90;;;;;;5097092;28;20436;-78
2022/01/06 07:13:52;;;;;;;17.53;5.30;;;4.20;99.90;;;;;;5097554;28;20491;-78
2022/01/06 07:16:20;;;;;;;25.90;6.90;;;4.30;99.90;;;;;;5100171;28;20960;-78
2022/01/06 07:18:48;;;;;;;21.33;5.73;;;4.20;99.90;;;;;;5100440;28;20437;-77
2022/01/06 07:21:16;;;;;;;31.37;6.83;;;4.20;99.90;;;;;;5100921;28;20461;-78
2022/01/06 07:23:42;;;;;;;28.73;8.30;;;4.20;99.90;;;;;;5101184;28;20426;-79
2022/01/06 07:26:12;;;;;;;22.20;6.53;;;4.20;99.90;;;;;;5100808;28;20208;-78
2022/01/06 07:28:41;;;;;;;26.83;6.40;;;4.20;99.90;;;;;;5103774;28;20192;-77
2022/01/06 07:31:09;;;;;;;32.83;6.70;;;4.20;99.90;;;;;;5101245;28;20672;-78
2022/01/06 07:33:35;;;;;;;18.90;6.43;;;4.20;99.90;;;;;;5100502;28;20470;-78
2022/01/06 07:36:02;;;;;;;22.03;6.50;;;4.30;99.90;;;;;;5096746;28;20445;-78
2022/01/06 07:38:30;;;;;;;21.90;6.53;;;4.20;99.90;;;;;;5098109;28;20442;-77
2022/01/06 07:40:58;;;;;;;11.67;5.00;;;4.10;99.90;;;;;;5097927;28;20429;-78
2022/01/06 07:43:27;;;;;;;19.47;4.70;;;4.10;99.90;;;;;;5097123;28;20445;-78
2022/01/06 07:45:54;;;;;;;14.30;3.17;;;4.10;99.90;;;;;;5096319;28;20430;-78
2022/01/06 07:48:26;;;;;;;14.63;3.80;;;4.00;99.90;;;;;;5095816;28;20802;-77
2022/01/06 07:50:53;;;;;;;12.87;2.77;;;4.00;99.90;;;;;;5100377;28;20446;-78
2022/01/06 07:53:20;;;;;;;10.60;2.70;;;4.10;99.90;;;;;;5100086;28;20972;-78
2022/01/06 07:55:47;;;;;;;12.77;3.93;;;4.00;99.90;;;;;;5100278;28;20492;-78
2022/01/06 07:58:14;;;;;;;12.15;3.80;;;4.00;99.90;;;;;;5099411;28;20434;-77
2022/01/06 08:00:44;;;;;;;14.97;2.93;;;4.10;99.90;;;;;;5098845;28;20193;-78
2022/01/06 08:03:11;;;;;;;13.10;3.10;;;4.10;99.90;;;;;;5097847;28;20473;-77
2022/01/06 08:05:39;;;;;;;11.93;3.03;;;4.10;99.90;;;;;;5095476;28;20797;-78
2022/01/06 08:08:05;;;;;;;13.77;3.40;;;4.20;99.90;;;;;;5096776;28;20456;-78
2022/01/06 08:10:32;;;;;;;14.93;3.87;;;4.30;99.90;;;;;;5111906;28;20441;-77
2022/01/06 08:12:59;;;;;;;11.67;3.77;;;4.40;99.90;;;;;;5117599;28;20475;-78
2022/01/06 08:15:29;;;;;;;13.33;3.83;;;4.60;99.90;;;;;;5117786;28;20973;-78
2022/01/06 08:17:57;;;;;;;15.83;4.07;;;4.60;99.90;;;;;;5118912;28;20441;-78
2022/01/06 08:20:26;;;;;;;16.73;4.00;;;4.70;99.90;;;;;;5119739;28;20429;-78
2022/01/06 08:22:53;;;;;;;15.90;3.93;;;4.70;99.90;;;;;;5120485;28;20193;-78
2022/01/06 08:25:20;;;;;;;19.60;4.00;;;4.70;99.90;;;;;;5120453;28;20201;-77
2022/01/06 08:27:47;;;;;;;15.17;4.50;;;4.70;99.90;;;;;;5120048;28;20209;-78
2022/01/06 08:30:14;;;;;;;17.60;3.87;;;4.80;99.90;;;;;;5119577;28;20198;-77
2022/01/06 08:32:40;;;;;;;19.87;4.67;;;4.90;99.90;;;;;;5119201;28;20588;-78
2022/01/06 08:35:09;;;;;;;16.83;4.80;;;5.00;99.90;;;;;;5108048;28;20283;-77
2022/01/06 08:37:36;;;;;;;15.93;5.13;;;4.90;99.90;;;;;;5119147;28;20207;-78
2022/01/06 08:40:04;;;;;;;24.90;5.37;;;5.00;99.90;;;;;;5120764;28;20200;-78
2022/01/06 08:42:31;;;;;;;24.37;6.07;;;5.00;99.90;;;;;;5120004;28;20192;-77
2022/01/06 08:46:01;;;;;;;17.93;5.40;;;5.10;99.90;;;;;;5129045;28;20193;-79
2022/01/06 08:55:40;;;;;;;21.53;4.87;;;5.10;99.90;;;;;;5121557;28;20234;-81
2022/01/06 09:02:12;;;;;;;10.80;3.63;;;5.20;99.90;;;;;;5097193;28;20241;-81
2022/01/06 09:05:02;;;;;;;12.83;4.27;;;5.30;99.90;;;;;;5131788;28;20184;-81
2022/01/06 09:12:05;;;;;;;15.75;4.80;;;5.50;99.90;;;;;;5096415;28;20415;-81
2022/01/06 09:14:44;;;;;;;14.80;4.17;;;5.80;99.90;;;;;;5093437;28;20289;-80
2022/01/06 09:47:36;;;;;;;24.23;7.07;;;5.70;99.90;;;;;;5073183;28;20436;-80
2022/01/06 09:50:47;;;;;;;23.53;5.90;;;5.50;99.90;;;;;;5393983;22;20229;-80
2022/01/06 10:01:13;;;;;;;16.10;6.07;;;5.30;99.90;;;;;;5040062;28;20265;-80
2022/01/06 10:32:05;;;;;;;22.53;6.63;;;5.20;99.90;;;;;;4918998;29;20200;-81
2022/01/06 10:38:32;;;;;;;17.93;7.03;;;5.20;99.90;;;;;;4936828;29;20249;-81
2022/01/06 10:41:20;;;;;;;18.23;7.13;;;5.10;99.90;;;;;;4937273;29;20499;-82
2022/01/06 10:44:03;;;;;;;24.37;7.07;;;5.20;99.90;;;;;;4938007;29;20199;-82
2022/01/06 10:46:37;;;;;;;24.73;7.77;;;5.30;99.90;;;;;;4937536;29;20207;-82
2022/01/06 10:49:06;;;;;;;30.77;8.20;;;5.20;99.90;;;;;;4927838;29;20299;-78
2022/01/06 10:51:46;;;;;;;18.83;6.73;;;5.20;99.90;;;;;;4915642;29;20218;-78
2022/01/06 10:54:18;;;;;;;17.13;6.93;;;5.10;99.90;;;;;;4915833;29;20277;-78
2022/01/06 10:56:58;;;;;;;23.10;7.90;;;5.00;99.90;;;;;;4916272;29;20298;-79
2022/01/06 10:59:27;;;;;;;19.65;7.75;;;5.10;99.90;;;;;;4955285;28;20447;-78
2022/01/06 11:01:54;;;;;;;23.67;7.83;;;5.10;99.90;;;;;;4973316;28;20273;-78
2022/01/06 11:04:38;;;;;;;21.50;7.47;;;5.10;99.90;;;;;;4974201;28;20216;-79
2022/01/06 11:07:13;;;;;;;21.87;7.23;;;5.10;99.90;;;;;;4991108;28;20213;-79
2022/01/06 11:09:56;;;;;;;18.57;7.30;;;5.30;99.90;;;;;;4992137;28;20193;-78
2022/01/06 11:12:40;;;;;;;26.30;7.57;;;5.40;99.90;;;;;;4995083;28;20209;-78
2022/01/06 11:15:21;;;;;;;20.73;6.77;;;5.30;99.90;;;;;;4995294;28;20296;-78
2022/01/06 11:20:42;;;;;;;19.43;7.20;;;5.50;99.90;;;;;;5009909;28;20235;-79
2022/01/06 11:23:31;;;;;;;23.20;7.40;;;5.40;99.90;;;;;;5051928;28;20208;-78
2022/01/06 11:26:11;;;;;;;19.80;7.50;;;5.40;99.90;;;;;;5055419;28;20199;-78
2022/01/06 11:31:39;;;;;;;25.53;7.67;;;5.60;99.90;;;;;;5052953;28;20202;-78
2022/01/06 11:34:21;;;;;;;25.97;7.43;;;5.70;99.90;;;;;;5053716;28;20246;-78
2022/01/06 11:37:18;;;;;;;23.42;8.48;;;5.80;99.90;;;;;;5052426;28;20926;-79
2022/01/06 11:40:16;;;;;;;24.03;7.67;;;6.00;99.90;;;;;;5058823;28;20207;-78
2022/01/06 11:43:10;;;;;;;17.37;6.80;;;5.90;99.90;;;;;;5075532;28;20194;-79
2022/01/06 11:45:49;;;;;;;21.97;7.20;;;5.80;99.90;;;;;;5075676;28;20234;-79
2022/01/06 11:48:28;;;;;;;21.50;6.40;;;5.70;99.90;;;;;;5074974;28;20235;-79
2022/01/06 11:53:44;;;;;;;25.13;7.77;;;5.70;99.90;;;;;;5075312;28;20203;-79
2022/01/06 11:56:24;;;;;;;20.30;8.50;;;5.70;99.90;;;;;;5074746;28;20501;-78
2022/01/06 11:59:36;;;;;;;15.60;6.27;;;6.00;99.90;;;;;;5058565;28;20210;-79
2022/01/06 12:02:30;;;;;;;23.47;7.23;;;6.10;99.90;;;;;;5075604;28;20206;-79
2022/01/06 12:05:06;;;;;;;24.23;7.37;;;6.00;99.90;;;;;;5058756;28;20222;-78
2022/01/06 12:08:17;;;;;;;20.73;6.90;;;6.00;99.90;;;;;;5074543;28;20206;-79
2022/01/06 12:10:59;;;;;;;20.17;6.87;;;6.10;99.90;;;;;;5041004;28;20214;-79
2022/01/06 12:13:48;;;;;;;20.10;6.20;;;6.00;99.90;;;;;;5074895;28;20241;-79
2022/01/06 12:16:48;;;;;;;19.52;8.20;;;6.00;99.90;;;;;;5073597;28;20425;-79
2022/01/06 12:19:49;;;;;;;22.70;7.87;;;6.10;99.90;;;;;;5075851;28;20278;-78
2022/01/06 12:28:56;;;;;;;18.27;6.53;;;6.30;99.90;;;;;;5076779;28;20214;-81
2022/01/06 12:31:51;;;;;;;19.37;7.03;;;6.30;99.90;;;;;;5080365;28;20204;-78
2022/01/06 12:34:32;;;;;;;20.17;8.27;;;6.30;99.90;;;;;;5074511;28;20446;-79
2022/01/06 12:37:03;;;;;;;21.00;7.17;;;6.30;99.90;;;;;;5078308;28;20210;-77
2022/01/06 12:40:03;;;;;;;19.93;6.63;;;6.40;99.90;;;;;;5077989;28;20175;-78
2022/01/06 12:42:46;;;;;;;19.57;7.13;;;6.40;99.90;;;;;;5077963;28;20255;-78
2022/01/06 12:45:33;;;;;;;17.13;7.10;;;6.40;99.90;;;;;;5076771;28;20194;-78
2022/01/06 12:48:12;;;;;;;20.47;6.70;;;6.50;99.90;;;;;;5060577;28;20194;-78
2022/01/06 12:50:52;;;;;;;16.40;6.80;;;6.60;99.90;;;;;;5062069;28;20221;-79
2022/01/06 12:53:51;;;;;;;21.92;7.57;;;6.70;99.90;;;;;;5076008;28;20440;-78
2022/01/06 12:56:33;;;;;;;18.17;7.00;;;6.60;99.90;;;;;;5076147;28;20218;-78
2022/01/06 12:59:08;;;;;;;16.23;6.13;;;6.50;99.90;;;;;;5057962;28;20202;-79
2022/01/06 13:01:38;;;;;;;17.00;5.90;;;6.60;99.90;;;;;;5074882;28;20273;-76
2022/01/06 13:07:52;;;;;;;19.40;5.63;;;6.60;99.90;;;;;;5075649;28;20211;-78
2022/01/06 13:18:34;;;;;;;15.37;5.53;;;6.40;99.90;;;;;;5134773;28;20192;-79
2022/01/06 13:30:49;;;;;;;18.73;3.97;;;6.50;99.90;;;;;;5094143;28;20201;-80
2022/01/06 13:34:03;;;;;;;16.20;4.07;;;6.30;99.90;;;;;;5094625;28;20428;-80
2022/01/06 13:37:19;;;;;;;10.80;2.90;;;6.40;99.90;;;;;;5094242;28;20185;-80
2022/01/06 13:40:32;;;;;;;13.70;3.07;;;6.30;99.90;;;;;;5094981;28;20233;-83
2022/01/06 13:43:00;;;;;;;10.67;2.77;;;6.20;99.90;;;;;;5092630;28;20209;-80
2022/01/06 13:46:00;;;;;;;13.93;3.30;;;6.30;99.90;;;;;;5073897;28;20210;-79
2022/01/06 13:48:44;;;;;;;16.13;3.83;;;6.20;99.90;;;;;;5080405;28;20204;-76
2022/01/06 13:51:13;;;;;;;13.57;4.03;;;6.30;99.90;;;;;;5082506;28;20432;-75
2022/01/06 13:53:42;;;;;;;13.63;3.77;;;6.40;99.90;;;;;;5080231;28;20233;-75
2022/01/06 13:56:12;;;;;;;13.13;3.60;;;6.40;99.90;;;;;;5079249;28;20544;-74
2022/01/06 13:58:42;;;;;;;13.10;3.97;;;6.50;99.90;;;;;;5081064;28;20233;-74
2022/01/06 14:01:11;;;;;;;17.23;4.30;;;6.40;99.90;;;;;;5080564;28;20201;-75
2022/01/06 14:03:39;;;;;;;18.70;4.17;;;6.40;99.90;;;;;;5080183;28;20209;-76
2022/01/06 14:06:09;;;;;;;16.77;4.30;;;6.40;99.90;;;;;;5062090;28;20202;-75
2022/01/06 14:08:38;;;;;;;15.53;4.17;;;6.40;99.90;;;;;;5061442;28;20229;-75
2022/01/06 14:11:07;;;;;;;19.15;5.35;;;6.40;99.90;;;;;;5078668;28;20452;-74
2022/01/06 14:13:37;;;;;;;18.37;4.57;;;6.50;99.90;;;;;;5078782;28;20305;-75
2022/01/06 14:16:05;;;;;;;15.50;4.70;;;6.40;99.90;;;;;;5078014;28;20230;-75
2022/01/06 14:18:33;;;;;;;15.73;4.77;;;6.30;99.90;;;;;;5079208;28;20209;-74
2022/01/06 14:21:00;;;;;;;24.30;4.83;;;6.30;99.90;;;;;;5079094;28;20218;-76
2022/01/06 14:23:30;;;;;;;14.40;4.90;;;6.30;99.90;;;;;;5076091;28;20232;-79
2022/01/06 14:26:04;;;;;;;18.10;4.30;;;6.30;99.90;;;;;;5055563;28;20202;-80
2022/01/06 14:31:17;;;;;;;20.67;5.43;;;6.30;99.90;;;;;;5072364;28;20241;-80
2022/01/06 14:33:51;;;;;;;25.23;7.27;;;6.30;99.90;;;;;;5071250;28;20230;-79
2022/01/06 14:36:20;;;;;;;21.77;5.87;;;6.30;99.90;;;;;;5072982;28;20198;-79
2022/01/06 14:38:51;;;;;;;21.20;5.63;;;6.40;99.90;;;;;;5072765;28;20199;-79
2022/01/06 14:41:20;;;;;;;25.27;6.37;;;6.30;99.90;;;;;;5090040;28;20194;-79
2022/01/06 14:44:19;;;;;;;24.23;6.33;;;6.30;99.90;;;;;;5075500;28;20198;-82
2022/01/06 14:47:11;;;;;;;20.87;6.50;;;6.30;99.90;;;;;;5078907;28;20220;-78
2022/01/06 14:49:49;;;;;;;17.17;5.67;;;6.20;99.90;;;;;;5080082;28;20202;-77
2022/01/06 14:52:55;;;;;;;18.53;6.07;;;6.30;99.90;;;;;;5085840;28;20236;-77
2022/01/06 14:55:30;;;;;;;13.93;4.90;;;6.30;99.90;;;;;;5095570;28;20205;-77
2022/01/06 14:58:44;;;;;;;18.90;5.17;;;6.20;99.90;;;;;;5075793;28;20262;-78
2022/01/06 15:01:36;;;;;;;15.57;4.13;;;6.30;99.90;;;;;;5077468;28;20227;-78
2022/01/06 15:04:12;;;;;;;15.83;3.70;;;6.10;99.90;;;;;;5076634;28;20228;-77
2022/01/06 15:06:41;;;;;;;20.07;4.20;;;6.10;99.90;;;;;;5047643;28;20313;-77
2022/01/06 15:09:09;;;;;;;16.05;5.00;;;6.00;99.90;;;;;;5055448;28;20433;-78
2022/01/06 15:11:36;;;;;;;15.70;4.13;;;6.10;99.90;;;;;;5057224;28;20218;-78
2022/01/06 15:14:03;;;;;;;14.60;3.73;;;6.00;99.90;;;;;;5059924;28;20325;-77
2022/01/06 15:16:30;;;;;;;11.13;3.70;;;5.80;99.90;;;;;;5063257;28;20676;-77
2022/01/06 15:18:57;;;;;;;14.03;4.17;;;5.90;99.90;;;;;;5059904;28;20234;-77
2022/01/06 15:21:25;;;;;;;12.10;3.80;;;5.80;99.90;;;;;;5059101;28;20205;-77
2022/01/06 15:23:52;;;;;;;12.30;3.80;;;5.90;99.90;;;;;;5056168;28;20202;-78
2022/01/06 15:26:19;;;;;;;14.00;3.83;;;5.80;99.90;;;;;;5056209;28;20198;-77